Puerto Banus, Marbella

>

This is an optional block (switch it off / on) in the settings - file ($SITE['banners'] = false;)

You can display ads, any other important text or photo’s using text / html or PHP code.

You can place one or more at the top and or bottom and it can all be different for content / size .



Meteosat more information blitzortung!


Radar lluvias  rain snow radar


Visita nuestra red de sitios de meteo:

Documentation for the template used

MeteoibericaRed estaciones Meteorologicas

MeteoclimaticRed estaciones Meteorologicas



Sin Advertencias climatologicas .En este momento tenemos Nivel Verde.    No hay Alarmas

Pagina Historial Weather Underground texto

Diario Resumen Diciembre 28, 2017 Unidades:  Métrico    impérial   Tanto
« Anterior Dia
Siguiente Dia »
Diario Semana Mensual Anual Personalizada
  Maxima: Minima: Media:
Temperatura: -17.8 °C -9.8 °C -8.6 °C
Punto de rocío: -17.8 °C -12.7 °C -10.8 °C
Humedad: Humidity % 64 % 78 %
Velocidad del Viento: 0 km/h 0 km/h 36.7 km/h
Ráfagas de viento: 0 km/h - -
Viento:- - West
Pression baro: 0 hPa 34418.7 hPa -
Précipitaciones: 0 mm    
Historical Graphs
 
 
Datos de tabla para Diciembre 28, 2017
Tiempo Temperatura Punto de rocío Pression baro Viento Velocidad del Viento Ráfagas de viento Humedad Las precipitaciones Rate ( Hora )
-17.8 °C -17.8 °C 0 hPa Calm     Humidity % 0 mm
00:00 -8.9 °C -12.7 °C 34476.3 hPa WNW 36.2 km/h 36.2 km/h 64 % 0 mm
00:04 -9.1 °C -12.7 °C 34476.3 hPa West 29.8 km/h 29.8 km/h 65 % 0 mm
00:06 -9.1 °C -12.6 °C 34476.3 hPa West 23.3 km/h 23.3 km/h 66 % 0 mm
00:11 -9.1 °C -12.6 °C 34476.3 hPa West 32.8 km/h 32.8 km/h 67 % 0 mm
00:13 -9.2 °C -12.6 °C 34476.3 hPa WNW 20.9 km/h 20.9 km/h 67 % 0 mm
00:16 -9.2 °C -12.5 °C 34476.3 hPa West 32.8 km/h 32.8 km/h 68 % 0 mm
00:21 -9.3 °C -12.6 °C 34476.3 hPa WNW 23.8 km/h 23.8 km/h 68 % 0 mm
00:22 -9.3 °C -12.6 °C 34476.3 hPa West 23.8 km/h 23.8 km/h 68 % 0 mm
00:27 -9.3 °C -12.4 °C 34476.3 hPa WNW 32.8 km/h 32.8 km/h 69 % 0 mm
00:28 -9.3 °C -12.4 °C 34476.3 hPa West 32.8 km/h 32.8 km/h 69 % 0 mm
00:30 -9.3 °C -12.4 °C 34476.3 hPa West 23.8 km/h 23.8 km/h 69 % 0 mm
00:34 -9.3 °C -12.4 °C 34476.3 hPa WNW 23.8 km/h 23.8 km/h 69 % 0 mm
00:39 -9.3 °C -12.5 °C 34476.3 hPa West 29.8 km/h 29.8 km/h 69 % 0 mm
00:44 -9.3 °C -12.4 °C 34476.3 hPa West 29.8 km/h 29.8 km/h 70 % 0 mm
00:48 -9.3 °C -12.3 °C 34476.3 hPa WNW 29.8 km/h 29.8 km/h 70 % 0 mm
00:51 -9.3 °C -12.3 °C 34476.3 hPa West 35.7 km/h 35.7 km/h 70 % 0 mm
00:55 -9.3 °C -12.3 °C 34476.3 hPa West 29.8 km/h 29.8 km/h 70 % 0 mm
00:56 -9.3 °C -12.3 °C 34476.3 hPa West 31.1 km/h 31.1 km/h 70 % 0 mm
01:01 -9.3 °C -12.4 °C 34462.7 hPa West 26.9 km/h 26.9 km/h 70 % 0 mm
01:02 -9.3 °C -12.4 °C 34462.7 hPa WNW 26.9 km/h 26.9 km/h 70 % 0 mm
01:07 -9.4 °C -12.3 °C 34462.7 hPa West 35.7 km/h 35.7 km/h 71 % 0 mm
01:12 -9.4 °C -12.3 °C 34476.3 hPa WNW 41.4 km/h 41.4 km/h 71 % 0 mm
01:15 -9.4 °C -12.3 °C 34476.3 hPa West 23.8 km/h 23.8 km/h 71 % 0 mm
01:17 -9.4 °C -12.3 °C 34476.3 hPa West 20.9 km/h 20.9 km/h 71 % 0 mm
01:20 -9.4 °C -12.3 °C 34476.3 hPa WNW 44.7 km/h 44.7 km/h 71 % 0 mm
01:23 -9.4 °C -12.3 °C 34476.3 hPa WNW 29.8 km/h 29.8 km/h 71 % 0 mm
01:28 -9.4 °C -12.2 °C 34462.7 hPa West 31.1 km/h 31.1 km/h 72 % 0 mm
01:29 -9.4 °C -12.2 °C 34462.7 hPa West 31.1 km/h 31.1 km/h 72 % 0 mm
01:31 -9.4 °C -12.2 °C 34462.7 hPa WNW 35.7 km/h 35.7 km/h 72 % 0 mm
01:34 -9.4 °C -12.2 °C 34462.7 hPa WNW 35.7 km/h 35.7 km/h 72 % 0 mm
01:39 -9.5 °C -12.3 °C 34462.7 hPa WNW 20.9 km/h 20.9 km/h 72 % 0 mm
01:40 -9.5 °C -12.3 °C 34462.7 hPa NW 20.9 km/h 20.9 km/h 72 % 0 mm
01:43 -9.5 °C -12.3 °C 34462.7 hPa West 23.8 km/h 23.8 km/h 72 % 0 mm
01:45 -9.6 °C -12.3 °C 34462.7 hPa West 26.9 km/h 26.9 km/h 72 % 0 mm
01:50 -9.6 °C -12.3 °C 34462.7 hPa West 44.7 km/h 44.7 km/h 72 % 0 mm
01:52 -9.6 °C -12.3 °C 34452.6 hPa WSW 35.7 km/h 35.7 km/h 72 % 0 mm
01:57 -9.6 °C -12.3 °C 34462.7 hPa WNW 29.8 km/h 29.8 km/h 72 % 0 mm
02:02 -9.6 °C -12.4 °C 34452.6 hPa West 47.6 km/h 47.6 km/h 72 % 0 mm
02:03 -9.6 °C -12.4 °C 34452.6 hPa West 41.7 km/h 41.7 km/h 72 % 0 mm
02:06 -9.6 °C -12.4 °C 34462.7 hPa West 47.6 km/h 47.6 km/h 72 % 0 mm
02:08 -9.6 °C -12.3 °C 34462.7 hPa WNW 50.7 km/h 50.7 km/h 72 % 0 mm
02:12 -9.6 °C -12.3 °C 34462.7 hPa WNW 23.8 km/h 23.8 km/h 72 % 0 mm
02:13 -9.6 °C -12.3 °C 34462.7 hPa West 20.9 km/h 20.9 km/h 72 % 0 mm
02:18 -9.6 °C -12.4 °C 34462.7 hPa West 23.3 km/h 23.3 km/h 72 % 0 mm
02:19 -9.6 °C -12.4 °C 34462.7 hPa WNW 25.9 km/h 25.9 km/h 72 % 0 mm
02:24 -9.6 °C -12.4 °C 34462.7 hPa West 26.9 km/h 26.9 km/h 72 % 0 mm
02:28 -9.6 °C -12.4 °C 34462.7 hPa West 38.8 km/h 38.8 km/h 72 % 0 mm
02:30 -9.6 °C -12.3 °C 34462.7 hPa West 29.8 km/h 29.8 km/h 73 % 0 mm
02:34 -9.6 °C -12.4 °C 34462.7 hPa West 38.8 km/h 38.8 km/h 72 % 0 mm
02:38 -9.6 °C -12.3 °C 34462.7 hPa WNW 35.7 km/h 35.7 km/h 73 % 0 mm
02:40 -9.6 °C -12.3 °C 34462.7 hPa WNW 33.6 km/h 33.6 km/h 73 % 0 mm
02:43 -9.6 °C -12.3 °C 34452.6 hPa West 38.8 km/h 38.8 km/h 73 % 0 mm
02:48 -9.6 °C -12.3 °C 34462.7 hPa West 20.9 km/h 20.9 km/h 73 % 0 mm
02:49 -9.6 °C -12.4 °C 34462.7 hPa West 20.9 km/h 20.9 km/h 72 % 0 mm
02:52 -9.6 °C -12.4 °C 34462.7 hPa West 17.9 km/h 17.9 km/h 72 % 0 mm
02:54 -9.6 °C -12.3 °C 34462.7 hPa WSW 20.8 km/h 20.8 km/h 73 % 0 mm
02:58 -9.7 °C -12.3 °C 34462.7 hPa West 20.9 km/h 20.9 km/h 73 % 0 mm
02:59 -9.7 °C -12.3 °C 34462.7 hPa West 20.9 km/h 20.9 km/h 73 % 0 mm
03:04 -9.7 °C -12.3 °C 34462.7 hPa West 26.9 km/h 26.9 km/h 73 % 0 mm
03:07 -9.7 °C -12.3 °C 34462.7 hPa West 32.8 km/h 32.8 km/h 73 % 0 mm
03:09 -9.7 °C -12.3 °C 34462.7 hPa West 29.8 km/h 29.8 km/h 73 % 0 mm
03:14 -9.7 °C -12.3 °C 34462.7 hPa WSW 20.9 km/h 20.9 km/h 73 % 0 mm
03:15 -9.7 °C -12.3 °C 34462.7 hPa West 29.8 km/h 29.8 km/h 73 % 0 mm
03:20 -9.7 °C -12.2 °C 34452.6 hPa West 25.9 km/h 25.9 km/h 74 % 0 mm
03:21 -9.7 °C -12.2 °C 34452.6 hPa West 20.9 km/h 20.9 km/h 74 % 0 mm
03:26 -9.7 °C -12.2 °C 34452.6 hPa West 29.8 km/h 29.8 km/h 74 % 0 mm
03:31 -9.7 °C -12.2 °C 34452.6 hPa West 29.8 km/h 29.8 km/h 74 % 0 mm
03:32 -9.7 °C -12.2 °C 34452.6 hPa West 29.8 km/h 29.8 km/h 74 % 0 mm
03:37 -9.6 °C -12.1 °C 34442.4 hPa WSW 29.8 km/h 29.8 km/h 75 % 0 mm
03:43 -9.6 °C -12 °C 34452.6 hPa West 41.7 km/h 41.7 km/h 75 % 0 mm
03:44 -9.5 °C -11.9 °C 34452.6 hPa West 38.8 km/h 38.8 km/h 75 % 0 mm
03:49 -9.5 °C -11.9 °C 34452.6 hPa West 35.7 km/h 35.7 km/h 75 % 0 mm
03:50 -9.5 °C -11.9 °C 34452.6 hPa West 44.7 km/h 44.7 km/h 75 % 0 mm
03:55 -9.4 °C -11.9 °C 34452.6 hPa West 23.8 km/h 23.8 km/h 75 % 0 mm
03:57 -9.4 °C -11.9 °C 34442.4 hPa WSW 26.9 km/h 26.9 km/h 75 % 0 mm
04:01 -9.4 °C -11.8 °C 34452.6 hPa West 50.7 km/h 50.7 km/h 75 % 0 mm
04:06 -9.3 °C -11.8 °C 34442.4 hPa WSW 59.5 km/h 59.5 km/h 75 % 0 mm
04:07 -9.3 °C -11.8 °C 34442.4 hPa WNW 59.5 km/h 59.5 km/h 75 % 0 mm
04:08 -9.3 °C -11.8 °C 34442.4 hPa WSW 53.6 km/h 53.6 km/h 75 % 0 mm
04:13 -9.3 °C -11.8 °C 34442.4 hPa West 35.7 km/h 35.7 km/h 75 % 0 mm
04:18 -9.4 °C -11.7 °C 34442.4 hPa West 44.7 km/h 44.7 km/h 76 % 0 mm
04:20 -9.4 °C -11.7 °C 34442.4 hPa West 36.2 km/h 36.2 km/h 76 % 0 mm
04:25 -9.4 °C -11.7 °C 34442.4 hPa West 47.6 km/h 47.6 km/h 76 % 0 mm
04:26 -9.4 °C -11.7 °C 34442.4 hPa West 47.6 km/h 47.6 km/h 76 % 0 mm
04:31 -9.4 °C -11.8 °C 34442.4 hPa WSW 47.6 km/h 47.6 km/h 76 % 0 mm
04:34 -9.4 °C -11.8 °C 34442.4 hPa WSW 38.8 km/h 38.8 km/h 76 % 0 mm
04:39 -9.4 °C -11.6 °C 34442.4 hPa West 38.8 km/h 38.8 km/h 77 % 0 mm
04:44 -9.4 °C -11.6 °C 34442.4 hPa West 50.7 km/h 50.7 km/h 78 % 0 mm
04:45 -9.5 °C -11.6 °C 34442.4 hPa West 38.8 km/h 38.8 km/h 78 % 0 mm
04:50 -9.5 °C -11.6 °C 34428.8 hPa West 20.9 km/h 20.9 km/h 78 % 0 mm
04:51 -9.5 °C -11.6 °C 34428.8 hPa West 25.9 km/h 25.9 km/h 78 % 0 mm
04:55 -9.5 °C -11.6 °C 34442.4 hPa West 44.7 km/h 44.7 km/h 78 % 0 mm
04:57 -9.5 °C -11.5 °C 34428.8 hPa WSW 29.8 km/h 29.8 km/h 79 % 0 mm
05:00 -9.5 °C -11.5 °C 34428.8 hPa WSW 36.2 km/h 36.2 km/h 79 % 0 mm
05:05 -9.6 °C -11.4 °C 34428.8 hPa West 41.7 km/h 41.7 km/h 80 % 0 mm
05:09 -9.6 °C -11.4 °C 34428.8 hPa West 38.8 km/h 38.8 km/h 80 % 0 mm
05:10 -9.6 °C -11.4 °C 34428.8 hPa West 29.8 km/h 29.8 km/h 80 % 0 mm
05:11 -9.6 °C -11.4 °C 34428.8 hPa West 29.8 km/h 29.8 km/h 80 % 0 mm
05:16 -9.6 °C -11.3 °C 34428.8 hPa West 29.8 km/h 29.8 km/h 81 % 0 mm
05:22 -9.6 °C -11.3 °C 34418.7 hPa West 32.8 km/h 32.8 km/h 81 % 0 mm
05:25 -9.6 °C -11.3 °C 34428.8 hPa West 32.8 km/h 32.8 km/h 82 % 0 mm
05:27 -9.6 °C -11.3 °C 34418.7 hPa WNW 32.8 km/h 32.8 km/h 82 % 0 mm
05:30 -9.6 °C -11.3 °C 34418.7 hPa WNW 35.7 km/h 35.7 km/h 82 % 0 mm
05:35 -9.6 °C -11.2 °C 34418.7 hPa West 29.8 km/h 29.8 km/h 83 % 0 mm
05:37 -9.6 °C -11.2 °C 34428.8 hPa West 29.8 km/h 29.8 km/h 83 % 0 mm
05:40 -9.6 °C -11.2 °C 34418.7 hPa West 32.8 km/h 32.8 km/h 83 % 0 mm
05:44 -9.6 °C -11.2 °C 34418.7 hPa West 28.5 km/h 28.5 km/h 83 % 0 mm
05:48 -9.6 °C -11.1 °C 34418.7 hPa West 38.8 km/h 38.8 km/h 84 % 0 mm
05:53 -9.7 °C -11.2 °C 34418.7 hPa West 47.6 km/h 47.6 km/h 84 % 0 mm
05:56 -9.6 °C -11.1 °C 34418.7 hPa West 23.8 km/h 23.8 km/h 84 % 0 mm
05:59 -9.7 °C -11.1 °C 34418.7 hPa West 35.7 km/h 35.7 km/h 85 % 0 mm
06:04 -9.7 °C -11.1 °C 34418.7 hPa West 35.7 km/h 35.7 km/h 85 % 0 mm
06:06 -9.7 °C -11.1 °C 34418.7 hPa WNW 31.1 km/h 31.1 km/h 85 % 0 mm
06:09 -9.7 °C -11.1 °C 34418.7 hPa West 41.7 km/h 41.7 km/h 85 % 0 mm
06:11 -9.7 °C -11 °C 34418.7 hPa West 29.8 km/h 29.8 km/h 86 % 0 mm
06:16 -9.7 °C -11 °C 34428.8 hPa WNW 47.6 km/h 47.6 km/h 86 % 0 mm
06:18 -9.7 °C -11 °C 34428.8 hPa West 35.7 km/h 35.7 km/h 86 % 0 mm
06:21 -9.7 °C -11 °C 34428.8 hPa West 29.8 km/h 29.8 km/h 86 % 0 mm
06:24 -9.7 °C -11 °C 34428.8 hPa West 29.8 km/h 29.8 km/h 86 % 0 mm
06:29 -9.8 °C -10.9 °C 34428.8 hPa West 36.2 km/h 36.2 km/h 87 % 0 mm
06:30 -9.8 °C -10.9 °C 34428.8 hPa WNW 44.7 km/h 44.7 km/h 87 % 0 mm
06:35 -9.8 °C -10.9 °C 34428.8 hPa West 36.2 km/h 36.2 km/h 87 % 0 mm
06:36 -9.8 °C -10.9 °C 34428.8 hPa West 35.7 km/h 35.7 km/h 87 % 0 mm
06:41 -9.8 °C -10.8 °C 34428.8 hPa West 35.7 km/h 35.7 km/h 88 % 0 mm
06:46 -9.8 °C -10.8 °C 34428.8 hPa West 44.7 km/h 44.7 km/h 88 % 0 mm
06:47 -9.8 °C -10.8 °C 34428.8 hPa West 44.7 km/h 44.7 km/h 88 % 0 mm
06:48 -9.8 °C -10.8 °C 34428.8 hPa West 35.7 km/h 35.7 km/h 88 % 0 mm
06:52 -9.7 °C -10.8 °C 34428.8 hPa West 38.8 km/h 38.8 km/h 88 % 0 mm
06:53 -9.8 °C -10.8 °C 34428.8 hPa West 29.8 km/h 29.8 km/h 88 % 0 mm
07:03 -9.7 °C -10.7 °C 34428.8 hPa West 29.8 km/h 29.8 km/h 89 % 0 mm
07:04 -9.7 °C -10.7 °C 34428.8 hPa West 36.2 km/h 36.2 km/h 89 % 0 mm
07:05 -9.7 °C -10.7 °C 34428.8 hPa WSW 35.7 km/h 35.7 km/h 89 % 0 mm
07:10 -9.7 °C -10.7 °C 34428.8 hPa West 38.8 km/h 38.8 km/h 89 % 0 mm
07:15 -9.7 °C -10.7 °C 34428.8 hPa West 38.8 km/h 38.8 km/h 89 % 0 mm
07:16 -9.7 °C -10.7 °C 34428.8 hPa West 38.8 km/h 38.8 km/h 89 % 0 mm
07:21 -9.7 °C -10.7 °C 34428.8 hPa West 41.7 km/h 41.7 km/h 89 % 0 mm
07:22 -9.7 °C -10.7 °C 34428.8 hPa West 44.1 km/h 44.1 km/h 89 % 0 mm
07:27 -9.6 °C -10.6 °C 34428.8 hPa West 41.7 km/h 41.7 km/h 89 % 0 mm
07:32 -9.6 °C -10.6 °C 34418.7 hPa WNW 38.8 km/h 38.8 km/h 89 % 0 mm
07:33 -9.6 °C -10.6 °C 34418.7 hPa WNW 38.8 km/h 38.8 km/h 89 % 0 mm
07:36 -9.6 °C -10.6 °C 34428.8 hPa West 38.8 km/h 38.8 km/h 89 % 0 mm
07:38 -9.6 °C -10.6 °C 34418.7 hPa West 35.7 km/h 35.7 km/h 89 % 0 mm
07:43 -9.6 °C -10.6 °C 34428.8 hPa West 32.8 km/h 32.8 km/h 89 % 0 mm
07:47 -9.6 °C -10.6 °C 34428.8 hPa West 32.8 km/h 32.8 km/h 89 % 0 mm
07:49 -9.6 °C -10.6 °C 34428.8 hPa WNW 29.8 km/h 29.8 km/h 89 % 0 mm
07:54 -9.6 °C -10.6 °C 34428.8 hPa West 29.8 km/h 29.8 km/h 89 % 0 mm
07:55 -9.6 °C -10.6 °C 34428.8 hPa WSW 29.8 km/h 29.8 km/h 89 % 0 mm
08:00 -9.6 °C -10.5 °C 34428.8 hPa WSW 29.8 km/h 29.8 km/h 89 % 0 mm
08:05 -9.5 °C -10.5 °C 34428.8 hPa West 35.7 km/h 35.7 km/h 89 % 0 mm
08:06 -9.5 °C -10.5 °C 34428.8 hPa West 35.7 km/h 35.7 km/h 89 % 0 mm
08:11 -9.5 °C -10.4 °C 34428.8 hPa WSW 41.7 km/h 41.7 km/h 89 % 0 mm
08:12 -9.5 °C -10.4 °C 34428.8 hPa West 41.7 km/h 41.7 km/h 89 % 0 mm
08:17 -9.4 °C -10.4 °C 34428.8 hPa WNW 41.4 km/h 41.4 km/h 89 % 0 mm
08:18 -9.4 °C -10.4 °C 34428.8 hPa West 41.7 km/h 41.7 km/h 89 % 0 mm
08:21 -9.4 °C -10.4 °C 34428.8 hPa WNW 41.7 km/h 41.7 km/h 89 % 0 mm
08:23 -9.4 °C -10.4 °C 34428.8 hPa WNW 41.7 km/h 41.7 km/h 89 % 0 mm
08:28 -9.4 °C -10.5 °C 34428.8 hPa West 41.7 km/h 41.7 km/h 88 % 0 mm
08:29 -9.4 °C -10.5 °C 34428.8 hPa West 38.8 km/h 38.8 km/h 88 % 0 mm
08:34 -9.3 °C -10.4 °C 34428.8 hPa West 44.7 km/h 44.7 km/h 88 % 0 mm
08:35 -9.3 °C -10.4 °C 34428.8 hPa West 41.7 km/h 41.7 km/h 88 % 0 mm
08:40 -9.3 °C -10.4 °C 34428.8 hPa WNW 38.8 km/h 38.8 km/h 88 % 0 mm
08:41 -9.3 °C -10.4 °C 34428.8 hPa West 38.8 km/h 38.8 km/h 88 % 0 mm
08:45 -9.3 °C -10.4 °C 34428.8 hPa WNW 35.7 km/h 35.7 km/h 87 % 0 mm
08:46 -9.3 °C -10.4 °C 34428.8 hPa WNW 35.7 km/h 35.7 km/h 87 % 0 mm
08:51 -9.2 °C -10.4 °C 34428.8 hPa WNW 38.8 km/h 38.8 km/h 87 % 0 mm
08:53 -9.2 °C -10.4 °C 34428.8 hPa WNW 29.8 km/h 29.8 km/h 86 % 0 mm
08:57 -9.1 °C -10.4 °C 34428.8 hPa West 38.8 km/h 38.8 km/h 86 % 0 mm
08:59 -9.1 °C -10.4 °C 34428.8 hPa West 47.6 km/h 47.6 km/h 86 % 0 mm
09:03 -9 °C -10.4 °C 34428.8 hPa West 49.2 km/h 49.2 km/h 85 % 0 mm
09:06 -9 °C -10.5 °C 34428.8 hPa West 38.8 km/h 38.8 km/h 84 % 0 mm
09:11 -8.8 °C -10.4 °C 34428.8 hPa West 47.6 km/h 47.6 km/h 83 % 0 mm
09:12 -8.8 °C -10.4 °C 34428.8 hPa West 44.7 km/h 44.7 km/h 83 % 0 mm
09:18 -8.8 °C -10.4 °C 34428.8 hPa West 44.7 km/h 44.7 km/h 83 % 0 mm
09:23 -8.7 °C -10.4 °C 34428.8 hPa WNW 41.7 km/h 41.7 km/h 82 % 0 mm
09:25 -8.7 °C -10.5 °C 34428.8 hPa West 49.2 km/h 49.2 km/h 81 % 0 mm
09:30 -8.6 °C -10.4 °C 34428.8 hPa West 56.6 km/h 56.6 km/h 81 % 0 mm
09:35 -8.5 °C -10.4 °C 34442.4 hPa West 49.2 km/h 49.2 km/h 80 % 0 mm
09:37 -8.5 °C -10.4 °C 34442.4 hPa WNW 50.7 km/h 50.7 km/h 80 % 0 mm
09:42 -8.5 °C -10.4 °C 34442.4 hPa West 50.7 km/h 50.7 km/h 80 % 0 mm
09:43 -8.5 °C -10.4 °C 34452.6 hPa West 50.7 km/h 50.7 km/h 80 % 0 mm
09:48 -8.5 °C -10.4 °C 34442.4 hPa WNW 53.6 km/h 53.6 km/h 80 % 0 mm
09:50 -8.5 °C -10.4 °C 34442.4 hPa West 44.7 km/h 44.7 km/h 80 % 0 mm
09:53 -8.5 °C -10.4 °C 34452.6 hPa West 41.7 km/h 41.7 km/h 80 % 0 mm
09:58 -8.5 °C -10.4 °C 34452.6 hPa West 44.1 km/h 44.1 km/h 80 % 0 mm
10:01 -8.5 °C -10.4 °C 34452.6 hPa West 50.7 km/h 50.7 km/h 80 % 0 mm
10:03 -8.4 °C -10.4 °C 34452.6 hPa WNW 50.7 km/h 50.7 km/h 80 % 0 mm
10:08 -8.4 °C -10.4 °C 34452.6 hPa West 38.8 km/h 38.8 km/h 80 % 0 mm
10:09 -8.4 °C -10.3 °C 34452.6 hPa WSW 44.7 km/h 44.7 km/h 80 % 0 mm
10:14 -8.4 °C -10.4 °C 34452.6 hPa WNW 41.7 km/h 41.7 km/h 79 % 0 mm
10:15 -8.3 °C -10.4 °C 34462.7 hPa WNW 50.7 km/h 50.7 km/h 79 % 0 mm
10:20 -8.3 °C -10.3 °C 34462.7 hPa West 47.6 km/h 47.6 km/h 79 % 0 mm
10:25 -8.3 °C -10.2 °C 34462.7 hPa WNW 41.7 km/h 41.7 km/h 80 % 0 mm
10:29 -8.3 °C -10.3 °C 34462.7 hPa West 44.7 km/h 44.7 km/h 80 % 0 mm
10:33 -8.4 °C -10.3 °C 34462.7 hPa West 41.7 km/h 41.7 km/h 80 % 0 mm
10:36 -8.4 °C -10.2 °C 34462.7 hPa West 33.6 km/h 33.6 km/h 81 % 0 mm
10:40 -8.4 °C -10.3 °C 34462.7 hPa West 32.8 km/h 32.8 km/h 81 % 0 mm
10:45 -8.4 °C -10.2 °C 34462.7 hPa West 26.9 km/h 26.9 km/h 81 % 0 mm
10:46 -8.4 °C -10.3 °C 34462.7 hPa WNW 26.9 km/h 26.9 km/h 80 % 0 mm
10:51 -8.2 °C -10.2 °C 34462.7 hPa West 41.7 km/h 41.7 km/h 80 % 0 mm
10:56 -8.2 °C -10.2 °C 34462.7 hPa WSW 51.8 km/h 51.8 km/h 79 % 0 mm
10:57 -8.2 °C -10.2 °C 34462.7 hPa West 36.2 km/h 36.2 km/h 79 % 0 mm
11:02 -8.1 °C -10.2 °C 34462.7 hPa West 32.8 km/h 32.8 km/h 78 % 0 mm
11:03 -8.1 °C -10.2 °C 34462.7 hPa West 35.7 km/h 35.7 km/h 78 % 0 mm
11:08 -8 °C -10.2 °C 34462.7 hPa West 35.7 km/h 35.7 km/h 78 % 0 mm
11:09 -8 °C -10.2 °C 34462.7 hPa West 44.1 km/h 44.1 km/h 78 % 0 mm
11:14 -7.9 °C -10.2 °C 34462.7 hPa West 50.7 km/h 50.7 km/h 77 % 0 mm
11:15 -7.9 °C -10.2 °C 34462.7 hPa West 47.6 km/h 47.6 km/h 77 % 0 mm
11:20 -7.9 °C -10.2 °C 34462.7 hPa West 44.7 km/h 44.7 km/h 77 % 0 mm
11:21 -7.9 °C -10.2 °C 34462.7 hPa WSW 44.7 km/h 44.7 km/h 77 % 0 mm
11:26 -7.9 °C -10.2 °C 34462.7 hPa WNW 38.8 km/h 38.8 km/h 77 % 0 mm
11:28 -7.9 °C -10.2 °C 34462.7 hPa WNW 32.8 km/h 32.8 km/h 77 % 0 mm
11:33 -7.8 °C -10.2 °C 34476.3 hPa West 44.7 km/h 44.7 km/h 76 % 0 mm
11:35 -7.8 °C -10.2 °C 34462.7 hPa West 41.7 km/h 41.7 km/h 76 % 0 mm
11:39 -7.7 °C -10.1 °C 34462.7 hPa West 41.7 km/h 41.7 km/h 76 % 0 mm
11:40 -7.7 °C -10.1 °C 34462.7 hPa West 41.7 km/h 41.7 km/h 76 % 0 mm
11:45 -7.7 °C -10.1 °C 34462.7 hPa WSW 41.4 km/h 41.4 km/h 76 % 0 mm
11:47 -7.7 °C -10.2 °C 34462.7 hPa WSW 41.7 km/h 41.7 km/h 75 % 0 mm
11:51 -7.7 °C -10.2 °C 34462.7 hPa West 59.5 km/h 59.5 km/h 75 % 0 mm
11:53 -7.7 °C -10.2 °C 34462.7 hPa WNW 59.5 km/h 59.5 km/h 75 % 0 mm
11:58 -7.7 °C -10.1 °C 34462.7 hPa WNW 46.7 km/h 46.7 km/h 76 % 0 mm
11:59 -7.7 °C -10.2 °C 34462.7 hPa West 47.6 km/h 47.6 km/h 75 % 0 mm
12:00 -7.6 °C -10.1 °C 34462.7 hPa WSW 47.6 km/h 47.6 km/h 75 % 0 mm
12:05 -7.6 °C -10.1 °C 34462.7 hPa West 41.7 km/h 41.7 km/h 75 % 0 mm
12:07 -7.6 °C -10.1 °C 34462.7 hPa West 38.8 km/h 38.8 km/h 75 % 0 mm
12:10 -7.6 °C -10.2 °C 34462.7 hPa West 56.6 km/h 56.6 km/h 74 % 0 mm
12:13 -7.4 °C -10.1 °C 34462.7 hPa WNW 41.7 km/h 41.7 km/h 74 % 0 mm
12:18 -7.4 °C -10.2 °C 34462.7 hPa West 51.8 km/h 51.8 km/h 73 % 0 mm
12:20 -7.4 °C -10.2 °C 34462.7 hPa WSW 59.5 km/h 59.5 km/h 73 % 0 mm
12:25 -7.4 °C -10.2 °C 34462.7 hPa West 50.7 km/h 50.7 km/h 73 % 0 mm
12:26 -7.4 °C -10.2 °C 34462.7 hPa West 50.7 km/h 50.7 km/h 73 % 0 mm
12:31 -7.4 °C -10.2 °C 34462.7 hPa West 51.8 km/h 51.8 km/h 73 % 0 mm
12:32 -7.4 °C -10.2 °C 34462.7 hPa West 50.7 km/h 50.7 km/h 73 % 0 mm
12:33 -7.4 °C -10.3 °C 34462.7 hPa WSW 50.7 km/h 50.7 km/h 72 % 0 mm
12:38 -7.4 °C -10.3 °C 34462.7 hPa West 50.7 km/h 50.7 km/h 72 % 0 mm
12:39 -7.4 °C -10.3 °C 34452.6 hPa West 47.6 km/h 47.6 km/h 72 % 0 mm
12:44 -7.4 °C -10.3 °C 34452.6 hPa WNW 50.7 km/h 50.7 km/h 72 % 0 mm
12:45 -7.4 °C -10.3 °C 34462.7 hPa WNW 53.6 km/h 53.6 km/h 72 % 0 mm
12:50 -7.4 °C -10.3 °C 34452.6 hPa West 59.5 km/h 59.5 km/h 72 % 0 mm
12:51 -7.4 °C -10.2 °C 34452.6 hPa WNW 59.5 km/h 59.5 km/h 72 % 0 mm
12:56 -7.3 °C -10.2 °C 34452.6 hPa West 50.7 km/h 50.7 km/h 72 % 0 mm
12:57 -7.3 °C -10.2 °C 34452.6 hPa WSW 38.8 km/h 38.8 km/h 72 % 0 mm
13:00 -7.3 °C -10.2 °C 34452.6 hPa WNW 56.6 km/h 56.6 km/h 71 % 0 mm
13:03 -7.3 °C -10.2 °C 34452.6 hPa WNW 62.6 km/h 62.6 km/h 71 % 0 mm
13:08 -7.2 °C -10.2 °C 34452.6 hPa WNW 49.2 km/h 49.2 km/h 71 % 0 mm
13:09 -7.2 °C -10.2 °C 34452.6 hPa West 56.6 km/h 56.6 km/h 71 % 0 mm
13:12 -7.2 °C -10.2 °C 34442.4 hPa WNW 50.7 km/h 50.7 km/h 71 % 0 mm
13:15 -7.2 °C -10.2 °C 34452.6 hPa West 53.6 km/h 53.6 km/h 71 % 0 mm
13:18 -7.2 °C -10.3 °C 34452.6 hPa West 62.6 km/h 62.6 km/h 70 % 0 mm
13:20 -7.2 °C -10.3 °C 34442.4 hPa West 54.4 km/h 54.4 km/h 70 % 0 mm
13:25 -7.2 °C -10.2 °C 34442.4 hPa West 47.6 km/h 47.6 km/h 71 % 0 mm
13:26 -7.2 °C -10.2 °C 34452.6 hPa West 51.8 km/h 51.8 km/h 71 % 0 mm
13:31 -7.2 °C -10.2 °C 34442.4 hPa WSW 62.6 km/h 62.6 km/h 71 % 0 mm
13:32 -7.2 °C -10.2 °C 34442.4 hPa West 62.6 km/h 62.6 km/h 71 % 0 mm
13:33 -7.2 °C -10.2 °C 34442.4 hPa WNW 50.7 km/h 50.7 km/h 71 % 0 mm
13:38 -7.2 °C -10.2 °C 34442.4 hPa West 50.7 km/h 50.7 km/h 71 % 0 mm
13:39 -7.2 °C -10.2 °C 34442.4 hPa WNW 50.7 km/h 50.7 km/h 71 % 0 mm
13:43 -7.2 °C -10.2 °C 34442.4 hPa West 41.7 km/h 41.7 km/h 71 % 0 mm
13:45 -7.2 °C -10.2 °C 34442.4 hPa West 41.7 km/h 41.7 km/h 71 % 0 mm
13:50 -7.2 °C -10.3 °C 34442.4 hPa WNW 53.6 km/h 53.6 km/h 70 % 0 mm
13:51 -7.2 °C -10.2 °C 34442.4 hPa WNW 53.6 km/h 53.6 km/h 71 % 0 mm
13:52 -7.2 °C -10.2 °C 34442.4 hPa WNW 53.6 km/h 53.6 km/h 71 % 0 mm
13:57 -7.2 °C -10.2 °C 34442.4 hPa West 56.6 km/h 56.6 km/h 71 % 0 mm
13:58 -7.2 °C -10.2 °C 34442.4 hPa West 62.6 km/h 62.6 km/h 71 % 0 mm
13:59 -7.2 °C -10.3 °C 34442.4 hPa WNW 62.6 km/h 62.6 km/h 70 % 0 mm
14:04 -7.2 °C -10.3 °C 34442.4 hPa West 56.6 km/h 56.6 km/h 70 % 0 mm
14:05 -7.2 °C -10.3 °C 34442.4 hPa West 71.5 km/h 71.5 km/h 70 % 0 mm
14:10 -7.1 °C -10.2 °C 34442.4 hPa WNW 56.6 km/h 56.6 km/h 70 % 0 mm
14:12 -7.1 °C -10.2 °C 34428.8 hPa West 56.6 km/h 56.6 km/h 70 % 0 mm
14:15 -7.1 °C -10.2 °C 34442.4 hPa WNW 65.5 km/h 65.5 km/h 70 % 0 mm
14:17 -7.1 °C -10.2 °C 34428.8 hPa WNW 53.6 km/h 53.6 km/h 70 % 0 mm
14:22 -7.1 °C -10.2 °C 34442.4 hPa West 46.7 km/h 46.7 km/h 70 % 0 mm
14:23 -7.1 °C -10.2 °C 34442.4 hPa West 49.2 km/h 49.2 km/h 70 % 0 mm
14:28 -7.1 °C -10.2 °C 34428.8 hPa WSW 71.5 km/h 71.5 km/h 70 % 0 mm
14:29 -7.1 °C -10.2 °C 34428.8 hPa WNW 71.5 km/h 71.5 km/h 70 % 0 mm
14:34 -7.1 °C -10.1 °C 34428.8 hPa West 41.7 km/h 41.7 km/h 71 % 0 mm
14:35 -7.1 °C -10.1 °C 34428.8 hPa WSW 44.1 km/h 44.1 km/h 71 % 0 mm
14:40 -7.1 °C -10.1 °C 34428.8 hPa West 53.6 km/h 53.6 km/h 71 % 0 mm
14:41 -7.2 °C -10.2 °C 34428.8 hPa West 41.7 km/h 41.7 km/h 71 % 0 mm
14:45 -7.2 °C -10.1 °C 34428.8 hPa WSW 51.8 km/h 51.8 km/h 72 % 0 mm
14:46 -7.2 °C -10.1 °C 34442.4 hPa West 44.7 km/h 44.7 km/h 72 % 0 mm
14:51 -7.2 °C -10.1 °C 34428.8 hPa West 44.7 km/h 44.7 km/h 72 % 0 mm
14:52 -7.1 °C -10 °C 34428.8 hPa West 46.7 km/h 46.7 km/h 72 % 0 mm
14:55 -7.2 °C -10.2 °C 34428.8 hPa West 53.6 km/h 53.6 km/h 71 % 0 mm
14:59 -7.2 °C -10.1 °C 34428.8 hPa West 54.4 km/h 54.4 km/h 72 % 0 mm
15:02 -7.2 °C -10.1 °C 34428.8 hPa West 50.7 km/h 50.7 km/h 72 % 0 mm
15:05 -7.2 °C -10.1 °C 34428.8 hPa West 44.7 km/h 44.7 km/h 72 % 0 mm
15:08 -7.2 °C -10.1 °C 34428.8 hPa West 38.8 km/h 38.8 km/h 72 % 0 mm
15:10 -7.2 °C -10.1 °C 34428.8 hPa West 35.7 km/h 35.7 km/h 72 % 0 mm
15:15 -7.2 °C -10.1 °C 34428.8 hPa West 47.6 km/h 47.6 km/h 72 % 0 mm
15:20 -7.1 °C -10 °C 34442.4 hPa West 41.7 km/h 41.7 km/h 72 % 0 mm
15:25 -7.1 °C -10 °C 34428.8 hPa West 47.6 km/h 47.6 km/h 72 % 0 mm
15:26 -7.1 °C -10 °C 34442.4 hPa West 47.6 km/h 47.6 km/h 72 % 0 mm
15:29 -7.1 °C -9.9 °C 34428.8 hPa West 41.7 km/h 41.7 km/h 72 % 0 mm
15:31 -7.1 °C -10.1 °C 34442.4 hPa West 50.7 km/h 50.7 km/h 71 % 0 mm
15:36 -7.2 °C -10.1 °C 34442.4 hPa WSW 38.8 km/h 38.8 km/h 72 % 0 mm
15:37 -7.2 °C -10.1 °C 34442.4 hPa West 50.7 km/h 50.7 km/h 72 % 0 mm
15:42 -7.3 °C -10 °C 34442.4 hPa West 41.7 km/h 41.7 km/h 73 % 0 mm
15:43 -7.3 °C -10 °C 34442.4 hPa West 41.7 km/h 41.7 km/h 73 % 0 mm
15:44 -7.3 °C -10.1 °C 34442.4 hPa West 41.7 km/h 41.7 km/h 73 % 0 mm
15:49 -7.3 °C -10.1 °C 34442.4 hPa WNW 50.7 km/h 50.7 km/h 73 % 0 mm
15:50 -7.3 °C -10.1 °C 34442.4 hPa WNW 41.7 km/h 41.7 km/h 73 % 0 mm
15:55 -7.3 °C -10.1 °C 34442.4 hPa West 54.4 km/h 54.4 km/h 73 % 0 mm
16:00 -7.3 °C -10.1 °C 34442.4 hPa West 49.2 km/h 49.2 km/h 73 % 0 mm
16:04 -7.4 °C -10.1 °C 34442.4 hPa WNW 53.6 km/h 53.6 km/h 73 % 0 mm
16:09 -7.4 °C -10.1 °C 34452.6 hPa West 50.7 km/h 50.7 km/h 74 % 0 mm
16:14 -7.6 °C -10.1 °C 34442.4 hPa WNW 41.7 km/h 41.7 km/h 75 % 0 mm
16:15 -7.6 °C -10.1 °C 34442.4 hPa WNW 41.7 km/h 41.7 km/h 75 % 0 mm
16:16 -7.6 °C -10.1 °C 34452.6 hPa West 41.7 km/h 41.7 km/h 75 % 0 mm
16:20 -7.6 °C -10.1 °C 34452.6 hPa West 35.7 km/h 35.7 km/h 75 % 0 mm
16:22 -7.6 °C -10.1 °C 34452.6 hPa West 35.7 km/h 35.7 km/h 75 % 0 mm
16:26 -7.5 °C -10 °C 34452.6 hPa West 47.6 km/h 47.6 km/h 75 % 0 mm
16:31 -7.5 °C -10 °C 34452.6 hPa WNW 47.6 km/h 47.6 km/h 75 % 0 mm
16:32 -7.5 °C -10 °C 34452.6 hPa West 47.6 km/h 47.6 km/h 75 % 0 mm
16:34 -7.6 °C -10.1 °C 34452.6 hPa West 44.7 km/h 44.7 km/h 75 % 0 mm
16:37 -7.6 °C -10.1 °C 34452.6 hPa West 50.7 km/h 50.7 km/h 75 % 0 mm
16:43 -7.6 °C -10.1 °C 34452.6 hPa WNW 35.7 km/h 35.7 km/h 75 % 0 mm
16:44 -7.6 °C -10.1 °C 34452.6 hPa WSW 47.6 km/h 47.6 km/h 75 % 0 mm
16:49 -7.6 °C -10.1 °C 34452.6 hPa WSW 35.7 km/h 35.7 km/h 75 % 0 mm
16:54 -7.6 °C -10.1 °C 34462.7 hPa West 38.8 km/h 38.8 km/h 75 % 0 mm
16:55 -7.6 °C -10.1 °C 34462.7 hPa West 38.8 km/h 38.8 km/h 75 % 0 mm
17:00 -7.7 °C -10.2 °C 34462.7 hPa WNW 50.7 km/h 50.7 km/h 75 % 0 mm
17:04 -7.7 °C -10.1 °C 34452.6 hPa WSW 41.7 km/h 41.7 km/h 76 % 0 mm
17:07 -7.8 °C -10.2 °C 34462.7 hPa WSW 50.7 km/h 50.7 km/h 76 % 0 mm
17:09 -7.9 °C -10.2 °C 34462.7 hPa West 47.6 km/h 47.6 km/h 76 % 0 mm
17:11 -7.9 °C -10.2 °C 34462.7 hPa West 41.7 km/h 41.7 km/h 77 % 0 mm
17:16 -7.9 °C -10.2 °C 34452.6 hPa West 41.7 km/h 41.7 km/h 77 % 0 mm
17:18 -8 °C -10.2 °C 34462.7 hPa WSW 47.6 km/h 47.6 km/h 77 % 0 mm
17:23 -8 °C -10.3 °C 34462.7 hPa West 44.7 km/h 44.7 km/h 77 % 0 mm
17:28 -8.1 °C -10.3 °C 34462.7 hPa WSW 41.7 km/h 41.7 km/h 78 % 0 mm
17:29 -8.1 °C -10.3 °C 34462.7 hPa WSW 41.7 km/h 41.7 km/h 78 % 0 mm
17:34 -8.2 °C -10.3 °C 34462.7 hPa West 41.7 km/h 41.7 km/h 78 % 0 mm
17:39 -8.2 °C -10.3 °C 34452.6 hPa West 59.5 km/h 59.5 km/h 79 % 0 mm
17:44 -8.3 °C -10.3 °C 34452.6 hPa West 47.6 km/h 47.6 km/h 79 % 0 mm
17:45 -8.3 °C -10.3 °C 34462.7 hPa WSW 47.6 km/h 47.6 km/h 79 % 0 mm
17:50 -8.4 °C -10.3 °C 34462.7 hPa West 44.7 km/h 44.7 km/h 80 % 0 mm
17:51 -8.4 °C -10.3 °C 34462.7 hPa West 44.7 km/h 44.7 km/h 80 % 0 mm
17:52 -8.4 °C -10.3 °C 34462.7 hPa West 44.7 km/h 44.7 km/h 80 % 0 mm
17:57 -8.4 °C -10.3 °C 34462.7 hPa WSW 53.6 km/h 53.6 km/h 81 % 0 mm
18:01 -8.5 °C -10.3 °C 34462.7 hPa West 41.7 km/h 41.7 km/h 81 % 0 mm
18:02 -8.5 °C -10.3 °C 34462.7 hPa WNW 50.7 km/h 50.7 km/h 81 % 0 mm
18:07 -8.6 °C -10.3 °C 34462.7 hPa West 41.7 km/h 41.7 km/h 82 % 0 mm
18:12 -8.6 °C -10.3 °C 34476.3 hPa West 44.7 km/h 44.7 km/h 82 % 0 mm
18:13 -8.6 °C -10.3 °C 34476.3 hPa West 44.7 km/h 44.7 km/h 82 % 0 mm
18:18 -8.6 °C -10.3 °C 34476.3 hPa West 49.2 km/h 49.2 km/h 82 % 0 mm
18:19 -8.7 °C -10.4 °C 34476.3 hPa West 56.6 km/h 56.6 km/h 82 % 0 mm
18:23 -8.7 °C -10.2 °C 34476.3 hPa WSW 50.7 km/h 50.7 km/h 83 % 0 mm
18:28 -8.7 °C -10.3 °C 34476.3 hPa West 29.8 km/h 29.8 km/h 83 % 0 mm
18:29 -8.7 °C -10.3 °C 34476.3 hPa West 29.8 km/h 29.8 km/h 83 % 0 mm
18:30 -8.7 °C -10.3 °C 34476.3 hPa West 35.7 km/h 35.7 km/h 83 % 0 mm
18:34 -8.7 °C -10.3 °C 34476.3 hPa West 29.8 km/h 29.8 km/h 83 % 0 mm
18:39 -8.7 °C -10.3 °C 34476.3 hPa WSW 33.6 km/h 33.6 km/h 83 % 0 mm
18:40 -8.7 °C -10.3 °C 34476.3 hPa West 32.8 km/h 32.8 km/h 83 % 0 mm
18:42 -8.7 °C -10.3 °C 34476.3 hPa West 32.8 km/h 32.8 km/h 83 % 0 mm
18:45 -8.7 °C -10.3 °C 34476.3 hPa West 35.7 km/h 35.7 km/h 83 % 0 mm
18:50 -8.7 °C -10.3 °C 34476.3 hPa West 32.8 km/h 32.8 km/h 83 % 0 mm
18:51 -8.7 °C -10.3 °C 34476.3 hPa WNW 32.8 km/h 32.8 km/h 83 % 0 mm
18:56 -8.7 °C -10.3 °C 34476.3 hPa West 35.7 km/h 35.7 km/h 83 % 0 mm
18:57 -8.7 °C -10.3 °C 34476.3 hPa West 26.9 km/h 26.9 km/h 83 % 0 mm
19:02 -8.7 °C -10.3 °C 34486.4 hPa West 29.8 km/h 29.8 km/h 83 % 0 mm
19:04 -8.7 °C -10.3 °C 34486.4 hPa West 26.9 km/h 26.9 km/h 83 % 0 mm
19:05 -8.7 °C -10.3 °C 34476.3 hPa West 17.9 km/h 17.9 km/h 83 % 0 mm
19:09 -8.7 °C -10.3 °C 34486.4 hPa West 20.9 km/h 20.9 km/h 83 % 0 mm
19:14 -8.7 °C -10.3 °C 34486.4 hPa West 17.9 km/h 17.9 km/h 83 % 0 mm
19:15 -8.7 °C -10.3 °C 34486.4 hPa West 17.9 km/h 17.9 km/h 83 % 0 mm
19:19 -8.7 °C -10.3 °C 34486.4 hPa WNW 15.6 km/h 15.6 km/h 83 % 0 mm
19:22 -8.7 °C -10.3 °C 34486.4 hPa WNW 29.8 km/h 29.8 km/h 83 % 0 mm
19:26 -8.7 °C -10.3 °C 34476.3 hPa West 20.9 km/h 20.9 km/h 83 % 0 mm
19:31 -8.7 °C -10.3 °C 34476.3 hPa WNW 26.9 km/h 26.9 km/h 83 % 0 mm
19:36 -8.7 °C -10.3 °C 34476.3 hPa WNW 26.9 km/h 26.9 km/h 83 % 0 mm
19:39 -8.7 °C -10.2 °C 34476.3 hPa WNW 31.1 km/h 31.1 km/h 83 % 0 mm
19:43 -8.7 °C -10.2 °C 34476.3 hPa West 23.8 km/h 23.8 km/h 83 % 0 mm
19:44 -8.6 °C -10.3 °C 34486.4 hPa West 25.9 km/h 25.9 km/h 82 % 0 mm
19:49 -8.6 °C -10.3 °C 34486.4 hPa West 18.2 km/h 18.2 km/h 82 % 0 mm
19:52 -8.6 °C -10.3 °C 34486.4 hPa WSW 20.8 km/h 20.8 km/h 82 % 0 mm
19:57 -8.6 °C -10.3 °C 34486.4 hPa West 23.8 km/h 23.8 km/h 82 % 0 mm
20:01 -8.6 °C -10.3 °C 34486.4 hPa West 15 km/h 15 km/h 82 % 0 mm
20:06 -8.6 °C -10.3 °C 34486.4 hPa WNW 9 km/h 9 km/h 82 % 0 mm
20:11 -8.6 °C -10.3 °C 34486.4 hPa WNW 9 km/h 9 km/h 82 % 0 mm
20:12 -8.6 °C -10.3 °C 34496.6 hPa WNW 9 km/h 9 km/h 82 % 0 mm
20:16 -8.6 °C -10.3 °C 34496.6 hPa WNW 18.2 km/h 18.2 km/h 82 % 0 mm
20:17 -8.6 °C -10.3 °C 34496.6 hPa NW 20.9 km/h 20.9 km/h 82 % 0 mm
20:22 -8.6 °C -10.3 °C 34496.6 hPa WNW 11.9 km/h 11.9 km/h 82 % 0 mm
20:27 -8.6 °C -10.3 °C 34496.6 hPa WNW 6 km/h 6 km/h 82 % 0 mm
20:28 -8.6 °C -10.3 °C 34496.6 hPa WNW 6 km/h 6 km/h 82 % 0 mm
20:34 -8.6 °C -10.3 °C 34496.6 hPa WNW 9 km/h 9 km/h 82 % 0 mm
20:39 -8.6 °C -10.3 °C 34496.6 hPa WNW 3.1 km/h   82 % 0 mm
20:44 -8.6 °C -10.3 °C 34496.6 hPa WNW 2.6 km/h 2.6 km/h 82 % 0 mm
20:45 -8.6 °C -10.3 °C 34496.6 hPa WNW 6 km/h 6 km/h 82 % 0 mm
20:50 -8.6 °C -10.3 °C 34496.6 hPa WNW 9 km/h 9 km/h 82 % 0 mm
20:51 -8.6 °C -10.3 °C 34496.6 hPa WNW 9 km/h 9 km/h 82 % 0 mm
20:53 -8.6 °C -10.3 °C 34496.6 hPa WNW 6 km/h 6 km/h 82 % 0 mm
20:57 -8.6 °C -10.3 °C 34496.6 hPa SW 6 km/h 6 km/h 82 % 0 mm
20:58 -8.6 °C -10.3 °C 34496.6 hPa SW 6 km/h 6 km/h 82 % 0 mm
21:03 -8.6 °C -10.3 °C 34496.6 hPa Calm     82 % 0 mm
21:04 -8.6 °C -10.3 °C 34496.6 hPa SW 6 km/h 6 km/h 82 % 0 mm
21:09 -8.6 °C -10.3 °C 34496.6 hPa SW 6 km/h   82 % 0 mm
21:14 -8.6 °C -10.4 °C 34510.1 hPa Calm     81 % 0 mm
21:15 -8.6 °C -10.4 °C 34510.1 hPa SW 9 km/h 9 km/h 81 % 0 mm
21:20 -8.6 °C -10.4 °C 34510.1 hPa SW 5.1 km/h 12.9 km/h 81 % 0 mm
21:25 -8.5 °C -10.3 °C 34510.1 hPa SW 9 km/h 9 km/h 81 % 0 mm
21:30 -8.5 °C -10.3 °C 34510.1 hPa SE 17.9 km/h 17.9 km/h 81 % 0 mm
21:35 -8.4 °C -10.2 °C 34510.1 hPa SSE 18.2 km/h 18.2 km/h 81 % 0 mm
21:37 -8.4 °C -10.2 °C 34510.1 hPa SSE 23.8 km/h 23.8 km/h 81 % 0 mm
21:42 -8.3 °C -10.2 °C 34510.1 hPa SSE 29.8 km/h 29.8 km/h 80 % 0 mm
21:44 -8.3 °C -10.2 °C 34510.1 hPa South 26.9 km/h 26.9 km/h 80 % 0 mm
21:48 -8.3 °C -10.2 °C 34520.3 hPa SSE 29.8 km/h 29.8 km/h 80 % 0 mm
21:49 -8.3 °C -10.2 °C 34520.3 hPa SSE 23.8 km/h 23.8 km/h 80 % 0 mm
21:54 -8.3 °C -10.2 °C 34520.3 hPa SSW 32.8 km/h 32.8 km/h 80 % 0 mm
21:55 -8.3 °C -10.1 °C 34520.3 hPa SW 32.8 km/h 32.8 km/h 81 % 0 mm
22:00 -8.4 °C -10.2 °C 34520.3 hPa SSW 29.8 km/h 29.8 km/h 81 % 0 mm
22:01 -8.4 °C -10.2 °C 34520.3 hPa SW 29.8 km/h 29.8 km/h 81 % 0 mm
22:02 -8.4 °C -10.2 °C 34520.3 hPa SW 26.9 km/h 26.9 km/h 81 % 0 mm
22:07 -8.4 °C -10.2 °C 34520.3 hPa SW 26.9 km/h 26.9 km/h 81 % 0 mm
22:08 -8.4 °C -10.2 °C 34520.3 hPa SW 26.9 km/h 26.9 km/h 81 % 0 mm
22:10 -8.4 °C -10.2 °C 34520.3 hPa SW 41.7 km/h 41.7 km/h 81 % 0 mm
22:14 -8.4 °C -10.1 °C 34520.3 hPa SW 32.8 km/h 32.8 km/h 82 % 0 mm
22:15 -8.4 °C -10.2 °C 34520.3 hPa SW 32.8 km/h 32.8 km/h 82 % 0 mm
22:20 -8.4 °C -10.3 °C 34520.3 hPa WSW 26.9 km/h 26.9 km/h 81 % 0 mm
22:25 -8.4 °C -10.2 °C 34533.8 hPa WSW 38.8 km/h 38.8 km/h 81 % 0 mm
22:26 -8.3 °C -10.2 °C 34533.8 hPa WSW 38.8 km/h 38.8 km/h 81 % 0 mm
22:31 -8.4 °C -10.1 °C 34533.8 hPa WSW 35.7 km/h 35.7 km/h 82 % 0 mm
22:32 -8.4 °C -10.1 °C 34533.8 hPa WSW 41.4 km/h 41.4 km/h 82 % 0 mm
22:37 -8.4 °C -10.1 °C 34533.8 hPa WSW 35.7 km/h 35.7 km/h 82 % 0 mm
22:38 -8.4 °C -10.1 °C 34533.8 hPa WSW 29.8 km/h 29.8 km/h 82 % 0 mm
22:41 -8.4 °C -10.1 °C 34533.8 hPa WSW 29.8 km/h 29.8 km/h 82 % 0 mm
22:44 -8.4 °C -10.1 °C 34533.8 hPa WSW 23.8 km/h 23.8 km/h 82 % 0 mm
22:49 -8.4 °C -10.2 °C 34533.8 hPa WSW 23.8 km/h 23.8 km/h 82 % 0 mm
22:51 -8.4 °C -10.2 °C 34533.8 hPa SW 17.9 km/h 17.9 km/h 81 % 0 mm
22:53 -8.4 °C -10.2 °C 34533.8 hPa SW 15 km/h 15 km/h 81 % 0 mm
22:57 -8.4 °C -10.2 °C 34533.8 hPa WSW 12.9 km/h 12.9 km/h 81 % 0 mm
22:58 -8.4 °C -10.4 °C 34533.8 hPa WSW 15 km/h 15 km/h 80 % 0 mm
23:02 -8.4 °C -10.3 °C 34533.8 hPa WSW 17.9 km/h 17.9 km/h 80 % 0 mm
23:03 -8.4 °C -10.3 °C 34533.8 hPa WSW 11.9 km/h 11.9 km/h 80 % 0 mm
23:06 -8.3 °C -10.4 °C 34533.8 hPa WSW 9 km/h 9 km/h 79 % 0 mm
23:09 -8.3 °C -10.3 °C 34533.8 hPa WSW 9 km/h 9 km/h 79 % 0 mm
23:13 -8.3 °C -10.4 °C 34533.8 hPa West 20.9 km/h 20.9 km/h 78 % 0 mm
23:17 -8.2 °C -10.4 °C 34533.8 hPa West 15.6 km/h 15.6 km/h 77 % 0 mm
23:22 -8.2 °C -10.5 °C 34533.8 hPa West 9 km/h 9 km/h 76 % 0 mm
23:24 -8.2 °C -10.7 °C 34533.8 hPa West 9 km/h 9 km/h 75 % 0 mm
23:29 -8.1 °C -10.7 °C 34533.8 hPa West 9 km/h 9 km/h 74 % 0 mm
23:34 -8.1 °C -10.8 °C 34544 hPa WSW 15.6 km/h 15.6 km/h 73 % 0 mm
23:35 -8 °C -10.7 °C 34544 hPa WSW 12.9 km/h 12.9 km/h 73 % 0 mm
23:40 -7.9 °C -10.7 °C 34544 hPa SW 26.9 km/h 26.9 km/h 73 % 0 mm
23:42 -7.9 °C -10.8 °C 34544 hPa WSW 26.9 km/h 26.9 km/h 72 % 0 mm
23:46 -7.9 °C -10.7 °C 34544 hPa SW 31.1 km/h 31.1 km/h 72 % 0 mm
23:51 -7.9 °C -10.8 °C 34544 hPa WSW 31.1 km/h 31.1 km/h 71 % 0 mm
23:56 -7.8 °C -10.7 °C 34544 hPa SW 38.8 km/h 38.8 km/h 71 % 0 mm
23:58 -7.8 °C -10.7 °C 34544 hPa WSW 47.6 km/h 47.6 km/h 71 % 0 mm
23:59 -7.8 °C -10.7 °C 34544 hPa WSW 47.6 km/h 47.6 km/h 71 % 0 mm
Puerto Banus, Marbella
Elogios de Weather Underground - 2.5 mb

Guión original por  Jim McMurry - jmcmurry@mwt.net Adaptado para la plantilla por  Wim van der Kuil - Leuven-Template.eu

Usted encontrará nuestra información del tiempo también en:

Weather Underground

Iberian Peninsula Weather Network